الصفحة الرئيسية
METAR-TAF:

METAR-TAF

مطار :

مطار نيتاجي سوبهاس شاندرا بوس الدولي

كلكتا, الهند

دائرة عرض: 22-39N, خط طول: 088-27E, ارتفاع: 4 متر

مراقبة الطقس الحالي

تاريخ ووقت الإصدار 41 دقيقة قبل الساعة 03:00UTC
ريح 3 عقدة من الشرق/الشمال الشرقي
درجة الحرارة 28°درجة مئوية
الرطوبة 74%
ضغط 1014 hPa
الرؤية: 2400 متر
غشاء

METAR: VECC 230300Z 06003KT 2400 BR NSC 28/23 Q1014 NOSIG

زمن: 09:11 (03:41 UTC)

توقعات

تاريخ ووقت الإصدار 4ساعات و 41 دقيقة قبل الساعة 23:00UTC
التوقعات صالحة من23 الساعة 00 UTC إلى 24 الساعة 06 UTC
ريح عقدة من الشمال
الرؤية: 1200 متر
غشاء
أصبح
من 23 الساعة 02 UTC إلى 23 الساعة 04 UTC
ريح 5 عقدة من الشمال/الشمال الغربي
الرؤية: 2800 متر
العجاج
أصبح
من 23 الساعة 04 UTC إلى 23 الساعة 06 UTC
الرؤية: 3500 متر
العجاج
أصبح
من 23 الساعة 13 UTC إلى 23 الساعة 15 UTC
ريح عقدة من الشمال
الرؤية: 2500 متر
غشاء
أصبح
من 24 الساعة 03 UTC إلى 24 الساعة 05 UTC
ريح 5 عقدة من الشمال
الرؤية: 3500 متر
العجاج

TAF: VECC 222300Z 2300/2406 00000KT 1200 BR NSC BECMG 2302/2304 33005KT 2800 HZ BECMG 2304/2306 3500 HZ BECMG 2313/2315 00000KT 2500 BR BECMG 2403/2405 35005KT 3500 HZ

أرصاد الطقس والتوقعات من أكثر من 4000 مطار (تقارير الطقس للمطار METAR والتنبؤ بالطقس بالمطارTAF).

المحطات المتاحة هي النقط الصفراء والحمراء على الخريطة.

حرك المؤشر فوق النقطة لمعرفة اسم المحطة.

ثم انقر لمعرفة أرصاد وتوقعات الطقس.

لتغيير الخارطة: اضغط على الأزرار الخضراء مع رمز الصليب الأسود للتكبير. على الزر الأخضر مع شرطة للتصغير، أو على الأسهم الخضراء للخرائط المجاورة.


METAR-TAF: